createdAt,value
2018-10-07T00:00:37.855Z,5.90
2018-10-07T00:01:48.150Z,5.22
2018-10-07T00:02:58.138Z,5.70
2018-10-07T00:04:11.391Z,5.20
2018-10-07T00:05:21.360Z,5.83
2018-10-07T00:06:31.353Z,4.90
2018-10-07T00:07:41.363Z,6.55
2018-10-07T00:08:53.668Z,4.78
2018-10-07T00:10:03.762Z,7.17
2018-10-07T00:11:13.668Z,5.30
2018-10-07T00:12:23.843Z,5.00
2018-10-07T00:13:33.858Z,4.83
2018-10-07T00:14:43.852Z,5.03
2018-10-07T00:16:03.068Z,6.03
2018-10-07T00:17:13.071Z,5.55
2018-10-07T00:18:23.175Z,4.58
2018-10-07T00:19:33.117Z,5.22
2018-10-07T00:20:43.056Z,5.12
2018-10-07T00:21:53.028Z,4.90
2018-10-07T00:23:02.987Z,5.92
2018-10-07T00:24:13.107Z,5.45
2018-10-07T00:25:23.018Z,5.35
2018-10-07T00:26:32.863Z,4.50
2018-10-07T00:27:42.700Z,6.30
2018-10-07T00:28:53.376Z,5.50
2018-10-07T00:30:03.206Z,5.45
2018-10-07T00:31:13.248Z,4.53
2018-10-07T00:32:23.404Z,5.15
2018-10-07T00:33:33.597Z,3.75
2018-10-07T00:34:47.874Z,4.10
2018-10-07T00:35:57.905Z,4.28
2018-10-07T00:37:07.943Z,4.45
2018-10-07T00:38:17.994Z,4.50
2018-10-07T00:39:27.868Z,3.85
2018-10-07T00:40:38.048Z,4.30
2018-10-07T00:41:48.086Z,4.30
2018-10-07T00:42:57.806Z,4.15
2018-10-07T00:44:07.899Z,4.33
2018-10-07T00:45:18.310Z,4.55
2018-10-07T00:46:28.369Z,4.05
2018-10-07T00:47:38.301Z,4.33
2018-10-07T00:48:48.205Z,4.12
2018-10-07T00:49:58.320Z,3.90
2018-10-07T00:51:08.081Z,3.98
2018-10-07T00:52:17.893Z,4.53
2018-10-07T00:53:27.709Z,4.03
2018-10-07T00:54:37.923Z,3.70
2018-10-07T00:55:48.210Z,4.60
2018-10-07T00:56:58.489Z,3.72
2018-10-07T00:58:08.291Z,4.37
2018-10-07T00:59:18.350Z,4.47
2018-10-07T01:00:28.640Z,3.55
2018-10-07T01:01:38.765Z,3.83
2018-10-07T01:02:49.007Z,5.22
2018-10-07T01:03:59.108Z,3.92
2018-10-07T01:05:09.028Z,4.20
2018-10-07T01:06:18.818Z,3.70
2018-10-07T01:07:28.859Z,3.40
2018-10-07T01:08:38.788Z,4.00
2018-10-07T01:09:48.798Z,3.35
2018-10-07T01:10:58.827Z,3.42
2018-10-07T01:12:08.821Z,4.37
2018-10-07T01:13:18.847Z,3.80
2018-10-07T01:14:28.761Z,3.45
2018-10-07T01:15:38.652Z,3.55
2018-10-07T01:16:48.517Z,3.02
2018-10-07T01:17:58.584Z,3.85
2018-10-07T01:19:08.645Z,4.00
2018-10-07T01:20:18.774Z,2.67
2018-10-07T01:21:29.074Z,2.80
2018-10-07T01:22:38.926Z,3.55
2018-10-07T01:23:48.762Z,3.10
2018-10-07T01:24:58.709Z,3.00
2018-10-07T01:26:08.554Z,3.08
2018-10-07T01:27:18.843Z,2.90
2018-10-07T01:28:28.505Z,3.30
2018-10-07T01:29:38.566Z,3.30
2018-10-07T01:30:48.602Z,3.05
2018-10-07T01:31:58.412Z,3.45
2018-10-07T01:33:08.632Z,3.12
2018-10-07T01:34:22.430Z,3.25
2018-10-07T01:35:32.530Z,2.87
2018-10-07T01:36:42.613Z,3.05
2018-10-07T01:37:52.793Z,3.50
2018-10-07T01:39:02.844Z,3.15
2018-10-07T01:40:12.973Z,2.83
2018-10-07T01:41:22.734Z,3.98
2018-10-07T01:42:33.023Z,3.80
2018-10-07T01:43:42.875Z,3.98
2018-10-07T01:44:52.997Z,4.45
2018-10-07T01:46:03.045Z,3.98
2018-10-07T01:47:13.353Z,3.55
2018-10-07T01:48:23.365Z,3.75
2018-10-07T01:49:33.556Z,3.87
2018-10-07T01:50:50.018Z,3.27
2018-10-07T01:51:59.784Z,2.87
2018-10-07T01:53:09.787Z,3.02
2018-10-07T01:54:19.687Z,3.25
2018-10-07T01:55:29.823Z,3.05
2018-10-07T01:56:39.986Z,2.90
2018-10-07T01:57:50.274Z,3.35
2018-10-07T01:59:00.523Z,3.17
2018-10-07T02:00:10.473Z,2.98
2018-10-07T02:01:20.232Z,2.35
2018-10-07T02:02:30.333Z,3.37
2018-10-07T02:03:40.745Z,3.60
2018-10-07T02:04:50.853Z,3.25
2018-10-07T02:06:00.624Z,3.45
2018-10-07T02:07:10.714Z,3.22
2018-10-07T02:08:20.773Z,2.75
2018-10-07T02:09:31.070Z,4.00
2018-10-07T02:10:41.047Z,2.70
2018-10-07T02:11:50.890Z,3.00
2018-10-07T02:13:00.731Z,2.58
2018-10-07T02:14:10.735Z,3.22
2018-10-07T02:15:20.876Z,3.15
2018-10-07T02:16:30.954Z,3.55
2018-10-07T02:17:41.095Z,2.87
2018-10-07T02:18:50.955Z,3.60
2018-10-07T02:20:01.088Z,2.87
2018-10-07T02:21:11.396Z,2.83
2018-10-07T02:22:21.471Z,3.22
2018-10-07T02:23:31.436Z,2.98
2018-10-07T02:24:41.525Z,3.42
2018-10-07T02:25:51.627Z,3.65
2018-10-07T02:27:01.907Z,3.72
2018-10-07T02:28:11.944Z,2.72
2018-10-07T02:29:22.097Z,2.70
2018-10-07T02:30:32.267Z,2.92
2018-10-07T02:31:42.182Z,2.47
2018-10-07T02:32:52.221Z,3.15
2018-10-07T02:34:02.282Z,3.08
2018-10-07T02:35:15.974Z,3.30
2018-10-07T02:36:26.093Z,3.15
2018-10-07T02:37:36.068Z,2.83
2018-10-07T02:38:46.124Z,3.02
2018-10-07T02:39:56.006Z,3.10
2018-10-07T02:41:05.784Z,3.27
2018-10-07T02:42:15.685Z,3.05
2018-10-07T02:43:25.925Z,3.60
2018-10-07T02:44:35.746Z,3.33
2018-10-07T02:45:45.826Z,2.98
2018-10-07T02:46:56.043Z,2.60
2018-10-07T02:48:06.325Z,2.83
2018-10-07T02:49:16.459Z,2.90
2018-10-07T02:50:26.543Z,3.02
2018-10-07T02:51:36.955Z,2.80
2018-10-07T02:52:51.505Z,3.00
2018-10-07T02:54:01.848Z,2.87
2018-10-07T02:55:11.905Z,3.62
2018-10-07T02:56:22.106Z,2.85
2018-10-07T02:57:32.568Z,2.98
2018-10-07T02:58:42.387Z,2.55
2018-10-07T02:59:52.946Z,2.95
2018-10-07T03:01:02.663Z,3.72
2018-10-07T03:02:12.638Z,2.60
2018-10-07T03:03:22.739Z,2.52
2018-10-07T03:04:32.747Z,3.15
2018-10-07T03:05:42.535Z,3.10
2018-10-07T03:06:52.358Z,3.40
2018-10-07T03:08:02.444Z,3.05
2018-10-07T03:09:12.653Z,3.12
2018-10-07T03:10:22.641Z,2.92
2018-10-07T03:11:32.682Z,2.70
2018-10-07T03:12:43.093Z,3.77
2018-10-07T03:13:53.183Z,3.35
2018-10-07T03:15:03.707Z,3.05
2018-10-07T03:16:13.433Z,2.58
2018-10-07T03:17:23.442Z,2.60
2018-10-07T03:18:33.621Z,3.17
2018-10-07T03:19:43.471Z,2.72
2018-10-07T03:20:53.612Z,3.42
2018-10-07T03:22:03.615Z,2.83
2018-10-07T03:23:20.126Z,3.08
2018-10-07T03:24:29.962Z,2.80
2018-10-07T03:25:40.167Z,2.90
2018-10-07T03:26:50.361Z,3.30
2018-10-07T03:28:00.334Z,2.77
2018-10-07T03:29:10.525Z,2.70
2018-10-07T03:30:20.311Z,3.10
2018-10-07T03:31:30.361Z,2.72
2018-10-07T03:32:43.770Z,3.00
2018-10-07T03:33:53.941Z,2.50
2018-10-07T03:35:04.002Z,3.08
2018-10-07T03:36:13.892Z,2.80
2018-10-07T03:37:23.910Z,2.72
2018-10-07T03:38:34.251Z,3.02
2018-10-07T03:39:44.445Z,2.92
2018-10-07T03:40:54.480Z,3.00
2018-10-07T03:42:04.426Z,3.15
2018-10-07T03:43:14.455Z,3.05
2018-10-07T03:44:24.408Z,3.15
2018-10-07T03:45:41.002Z,3.02
2018-10-07T03:46:50.849Z,2.67
2018-10-07T03:48:00.799Z,2.80
2018-10-07T03:49:10.914Z,2.95
2018-10-07T03:50:20.902Z,2.77
2018-10-07T03:51:30.890Z,3.08
2018-10-07T03:52:40.824Z,2.60
2018-10-07T03:53:51.093Z,2.60
2018-10-07T03:55:01.131Z,2.70
2018-10-07T03:56:11.231Z,2.87
2018-10-07T03:57:21.073Z,2.87
2018-10-07T03:58:31.092Z,2.65
2018-10-07T03:59:41.399Z,3.00
2018-10-07T04:00:51.451Z,2.87
2018-10-07T04:02:01.542Z,2.72
2018-10-07T04:03:11.419Z,2.95
2018-10-07T04:04:21.331Z,2.60
2018-10-07T04:05:31.695Z,2.70
2018-10-07T04:06:41.739Z,2.87
2018-10-07T04:07:51.489Z,2.92
2018-10-07T04:09:01.302Z,3.05
2018-10-07T04:10:11.659Z,2.80
2018-10-07T04:11:21.770Z,2.75
2018-10-07T04:12:31.745Z,2.95
2018-10-07T04:13:41.647Z,3.05
2018-10-07T04:14:55.325Z,2.92
2018-10-07T04:16:05.254Z,3.25
2018-10-07T04:17:15.383Z,3.35
2018-10-07T04:18:25.548Z,3.87
2018-10-07T04:19:35.553Z,3.22
2018-10-07T04:20:45.667Z,3.15
2018-10-07T04:21:56.663Z,3.08
2018-10-07T04:23:06.975Z,3.20
2018-10-07T04:24:17.293Z,3.17
2018-10-07T04:25:27.091Z,2.85
2018-10-07T04:26:37.098Z,2.62
2018-10-07T04:27:47.227Z,2.83
2018-10-07T04:28:57.409Z,2.47
2018-10-07T04:30:07.384Z,2.60
2018-10-07T04:31:17.409Z,2.37
2018-10-07T04:32:27.622Z,2.72
2018-10-07T04:33:44.102Z,3.27
2018-10-07T04:34:53.833Z,2.62
2018-10-07T04:36:04.513Z,2.70
2018-10-07T04:37:14.281Z,3.35
2018-10-07T04:38:24.247Z,2.67
2018-10-07T04:39:33.960Z,2.80
2018-10-07T04:40:44.236Z,2.80
2018-10-07T04:41:54.047Z,2.95
2018-10-07T04:43:04.035Z,2.85
2018-10-07T04:44:14.189Z,2.55
2018-10-07T04:45:24.247Z,2.87
2018-10-07T04:46:34.410Z,2.95
2018-10-07T04:47:44.379Z,2.80
2018-10-07T04:48:54.340Z,3.37
2018-10-07T04:50:04.471Z,3.52
2018-10-07T04:51:14.743Z,2.85
2018-10-07T04:52:24.623Z,3.05
2018-10-07T04:53:34.845Z,3.12
2018-10-07T04:54:44.686Z,2.95
2018-10-07T04:55:54.375Z,2.45
2018-10-07T04:57:04.391Z,2.55
2018-10-07T04:58:14.610Z,2.62
2018-10-07T04:59:24.235Z,3.00
2018-10-07T05:00:34.098Z,2.65
2018-10-07T05:01:44.292Z,2.80
2018-10-07T05:02:54.325Z,3.10
2018-10-07T05:04:04.498Z,3.27
2018-10-07T05:05:14.527Z,2.90
2018-10-07T05:06:26.464Z,3.02
2018-10-07T05:07:36.436Z,3.33
2018-10-07T05:08:46.514Z,3.02
2018-10-07T05:10:07.702Z,2.90
2018-10-07T05:11:17.911Z,2.35
2018-10-07T05:12:27.972Z,2.45
2018-10-07T05:13:56.385Z,2.20
2018-10-07T05:15:07.433Z,2.85
2018-10-07T05:16:36.475Z,2.90
2018-10-07T05:17:46.591Z,2.12
2018-10-07T05:18:56.994Z,2.42
2018-10-07T05:20:07.384Z,2.70
2018-10-07T05:21:17.184Z,2.25
2018-10-07T05:22:27.134Z,2.50
2018-10-07T05:23:37.144Z,2.40
2018-10-07T05:24:52.430Z,2.58
2018-10-07T05:26:02.447Z,2.80
2018-10-07T05:27:12.463Z,2.47
2018-10-07T05:28:22.566Z,2.42
2018-10-07T05:29:32.356Z,2.70
2018-10-07T05:30:42.220Z,2.67
2018-10-07T05:31:52.328Z,2.65
2018-10-07T05:33:02.620Z,1.77
2018-10-07T05:34:12.660Z,3.42
2018-10-07T05:35:22.716Z,2.60
2018-10-07T05:36:32.633Z,2.85
2018-10-07T05:37:42.804Z,2.85
2018-10-07T05:38:52.912Z,2.80
2018-10-07T05:40:02.812Z,2.83
2018-10-07T05:41:13.085Z,2.42
2018-10-07T05:42:22.965Z,2.70
2018-10-07T05:43:33.054Z,1.98
2018-10-07T05:44:43.199Z,2.50
2018-10-07T05:45:53.545Z,2.65
2018-10-07T05:47:03.526Z,2.30
2018-10-07T05:48:13.307Z,2.30
2018-10-07T05:49:23.342Z,2.52
2018-10-07T05:50:33.153Z,2.70
2018-10-07T05:51:43.330Z,2.60
2018-10-07T05:52:53.742Z,3.60
2018-10-07T05:54:04.108Z,2.98
2018-10-07T05:55:14.095Z,2.52
2018-10-07T05:56:24.122Z,2.70
2018-10-07T05:57:34.703Z,2.52
2018-10-07T05:58:45.603Z,2.33
2018-10-07T05:59:55.812Z,2.45
2018-10-07T06:01:09.153Z,2.80
2018-10-07T06:02:19.495Z,2.75
2018-10-07T06:03:39.821Z,2.85
2018-10-07T06:04:54.862Z,2.98
2018-10-07T06:06:04.964Z,2.67
2018-10-07T06:07:15.167Z,2.55
2018-10-07T06:08:25.682Z,3.30
2018-10-07T06:09:36.715Z,2.90
2018-10-07T06:10:46.891Z,2.25
2018-10-07T06:11:57.191Z,2.50
2018-10-07T06:13:07.142Z,3.30
2018-10-07T06:14:27.990Z,2.95
2018-10-07T06:15:39.131Z,2.85
2018-10-07T06:16:49.171Z,2.27
2018-10-07T06:17:59.482Z,2.50
2018-10-07T06:19:09.550Z,3.02
2018-10-07T06:20:19.575Z,2.45
2018-10-07T06:21:29.884Z,2.85
2018-10-07T06:22:40.044Z,2.90
2018-10-07T06:23:50.054Z,2.70
2018-10-07T06:24:59.934Z,3.20
2018-10-07T06:26:09.989Z,2.90
2018-10-07T06:27:19.749Z,2.70
2018-10-07T06:28:29.759Z,2.72
2018-10-07T06:29:39.927Z,3.02
2018-10-07T06:30:50.230Z,2.65
2018-10-07T06:32:00.641Z,2.92
2018-10-07T06:33:10.601Z,3.30
2018-10-07T06:34:20.522Z,2.83
2018-10-07T06:35:36.011Z,3.20
2018-10-07T06:36:46.016Z,2.98
2018-10-07T06:37:56.422Z,2.83
2018-10-07T06:39:06.588Z,2.60
2018-10-07T06:40:16.515Z,2.95
2018-10-07T06:41:30.290Z,2.10
2018-10-07T06:42:40.443Z,3.52
2018-10-07T06:43:50.176Z,2.75
2018-10-07T06:45:00.499Z,2.72
2018-10-07T06:46:10.618Z,2.72
2018-10-07T06:47:20.794Z,2.52
2018-10-07T06:48:30.768Z,2.60
2018-10-07T06:49:40.693Z,2.75
2018-10-07T06:50:50.471Z,3.80
2018-10-07T06:52:00.366Z,2.47
2018-10-07T06:53:10.888Z,2.50
2018-10-07T06:54:20.489Z,2.85
2018-10-07T06:55:30.559Z,2.80
2018-10-07T06:56:40.488Z,2.50
2018-10-07T06:57:50.630Z,2.60
2018-10-07T06:59:00.769Z,2.25
2018-10-07T07:00:11.822Z,2.12
2018-10-07T07:01:21.850Z,2.77
2018-10-07T07:02:32.759Z,2.17
2018-10-07T07:03:42.816Z,2.72
2018-10-07T07:04:53.242Z,2.62
2018-10-07T07:06:03.271Z,2.40
2018-10-07T07:07:13.290Z,2.42
2018-10-07T07:08:23.142Z,2.87
2018-10-07T07:09:33.210Z,2.22
2018-10-07T07:10:43.140Z,2.45
2018-10-07T07:11:53.023Z,3.05
2018-10-07T07:13:03.200Z,3.45
2018-10-07T07:14:12.880Z,3.00
2018-10-07T07:15:22.862Z,2.85
2018-10-07T07:16:32.899Z,2.30
2018-10-07T07:17:42.859Z,2.70
2018-10-07T07:19:04.602Z,2.50
2018-10-07T07:20:15.090Z,2.35
2018-10-07T07:21:25.220Z,2.30
2018-10-07T07:22:35.090Z,2.45
2018-10-07T07:23:45.330Z,2.87
2018-10-07T07:24:58.757Z,2.80
2018-10-07T07:26:08.828Z,2.65
2018-10-07T07:27:18.852Z,2.98
2018-10-07T07:28:28.690Z,2.70
2018-10-07T07:29:42.243Z,2.35
2018-10-07T07:30:52.200Z,2.40
2018-10-07T07:32:02.371Z,2.65
2018-10-07T07:33:12.435Z,3.33
2018-10-07T07:34:22.479Z,3.60
2018-10-07T07:35:32.530Z,2.98
2018-10-07T07:36:42.313Z,2.75
2018-10-07T07:37:52.246Z,3.02
2018-10-07T07:39:02.832Z,2.60
2018-10-07T07:40:12.968Z,2.67
2018-10-07T07:41:23.240Z,3.02
2018-10-07T07:42:33.340Z,2.52
2018-10-07T07:43:43.477Z,3.17
2018-10-07T07:44:53.427Z,2.92
2018-10-07T07:46:06.058Z,2.37
2018-10-07T07:47:16.130Z,2.75
2018-10-07T07:48:26.369Z,2.30
2018-10-07T07:49:36.553Z,2.92
2018-10-07T07:50:46.408Z,2.22
2018-10-07T07:51:56.091Z,2.85
2018-10-07T07:53:05.915Z,3.15
2018-10-07T07:54:15.908Z,2.95
2018-10-07T07:55:26.152Z,2.47
2018-10-07T07:56:36.064Z,3.35
2018-10-07T07:57:46.044Z,3.47
2018-10-07T07:58:55.747Z,3.45
2018-10-07T08:00:05.828Z,3.45
2018-10-07T08:01:15.906Z,4.70
2018-10-07T08:02:25.738Z,2.80
2018-10-07T08:03:35.744Z,3.15
2018-10-07T08:04:45.707Z,2.60
2018-10-07T08:05:55.975Z,2.70
2018-10-07T08:07:05.998Z,2.83
2018-10-07T08:08:16.195Z,3.15
2018-10-07T08:09:26.240Z,2.85
2018-10-07T08:10:36.006Z,3.10
2018-10-07T08:11:46.009Z,2.98
2018-10-07T08:12:55.874Z,3.22
2018-10-07T08:14:05.867Z,2.92
2018-10-07T08:15:15.596Z,2.55
2018-10-07T08:16:25.817Z,2.92
2018-10-07T08:17:36.259Z,3.52
2018-10-07T08:18:45.979Z,3.25
2018-10-07T08:19:57.846Z,2.58
2018-10-07T08:21:07.922Z,3.00
2018-10-07T08:22:18.131Z,2.55
2018-10-07T08:23:28.369Z,3.98
2018-10-07T08:24:38.546Z,3.20
2018-10-07T08:25:48.441Z,4.10
2018-10-07T08:26:58.525Z,3.02
2018-10-07T08:28:08.875Z,4.55
2018-10-07T08:29:18.865Z,3.47
2018-10-07T08:30:28.789Z,3.80
2018-10-07T08:31:38.642Z,4.00
2018-10-07T08:32:48.974Z,3.30
2018-10-07T08:33:59.196Z,3.87
2018-10-07T08:35:08.788Z,3.52
2018-10-07T08:36:18.389Z,3.40
2018-10-07T08:37:28.773Z,2.80
2018-10-07T08:38:41.511Z,3.45
2018-10-07T08:39:51.898Z,4.10
2018-10-07T08:41:01.915Z,3.77
2018-10-07T08:42:13.619Z,3.30
2018-10-07T08:43:23.726Z,3.35
2018-10-07T08:44:34.184Z,3.65
2018-10-07T08:45:44.445Z,3.98
2018-10-07T08:46:54.585Z,3.75
2018-10-07T08:48:04.876Z,3.70
2018-10-07T08:49:15.153Z,4.90
2018-10-07T08:50:25.203Z,4.80
2018-10-07T08:51:35.173Z,5.10
2018-10-07T08:52:45.331Z,3.50
2018-10-07T08:53:55.213Z,4.37
2018-10-07T08:55:05.160Z,2.80
2018-10-07T08:56:15.408Z,3.67
2018-10-07T08:57:25.492Z,3.33
2018-10-07T08:58:35.435Z,3.47
2018-10-07T08:59:45.384Z,2.70
2018-10-07T09:00:55.509Z,3.20
2018-10-07T09:02:05.752Z,2.87
2018-10-07T09:03:16.014Z,3.45
2018-10-07T09:04:26.463Z,3.72
2018-10-07T09:05:36.476Z,2.85
2018-10-07T09:06:46.792Z,2.90
2018-10-07T09:07:56.989Z,3.35
2018-10-07T09:09:08.465Z,2.92
2018-10-07T09:10:18.410Z,3.35
2018-10-07T09:11:28.296Z,2.72
2018-10-07T09:12:38.591Z,2.75
2018-10-07T09:13:50.079Z,2.33
2018-10-07T09:15:06.403Z,2.08
2018-10-07T09:16:16.212Z,2.95
2018-10-07T09:17:26.194Z,2.75
2018-10-07T09:18:36.196Z,2.35
2018-10-07T09:19:46.405Z,2.55
2018-10-07T09:21:00.182Z,3.27
2018-10-07T09:22:10.406Z,2.83
2018-10-07T09:23:20.546Z,2.75
2018-10-07T09:24:30.819Z,6.20
2018-10-07T09:25:40.698Z,2.67
2018-10-07T09:26:50.588Z,3.10
2018-10-07T09:28:00.702Z,2.67
2018-10-07T09:29:10.815Z,2.37
2018-10-07T09:30:21.120Z,3.75
2018-10-07T09:31:31.310Z,3.33
2018-10-07T09:32:41.320Z,3.17
2018-10-07T09:33:51.381Z,2.55
2018-10-07T09:35:01.163Z,2.60
2018-10-07T09:36:11.242Z,2.65
2018-10-07T09:37:21.491Z,2.72
2018-10-07T09:38:31.221Z,2.70
2018-10-07T09:39:41.236Z,2.80
2018-10-07T09:40:51.473Z,2.20
2018-10-07T09:42:01.504Z,3.05
2018-10-07T09:43:11.466Z,2.75
2018-10-07T09:44:21.552Z,2.40
2018-10-07T09:45:31.684Z,2.70
2018-10-07T09:46:42.106Z,3.00
2018-10-07T09:47:52.545Z,2.25
2018-10-07T09:49:02.715Z,2.65
2018-10-07T09:50:12.640Z,2.50
2018-10-07T09:51:22.694Z,3.27
2018-10-07T09:52:32.745Z,2.72
2018-10-07T09:53:42.783Z,2.60
2018-10-07T09:54:53.279Z,2.58
2018-10-07T09:56:03.509Z,2.05
2018-10-07T09:57:13.521Z,3.33
2018-10-07T09:58:26.871Z,2.70
2018-10-07T09:59:36.698Z,2.50
2018-10-07T10:00:46.614Z,3.25
2018-10-07T10:01:57.091Z,3.02
2018-10-07T10:03:07.739Z,2.75
2018-10-07T10:04:17.714Z,2.72
2018-10-07T10:05:27.918Z,2.90
2018-10-07T10:06:38.061Z,2.85
2018-10-07T10:07:47.910Z,3.37
2018-10-07T10:08:57.785Z,2.40
2018-10-07T10:10:07.748Z,2.62
2018-10-07T10:11:17.980Z,2.90
2018-10-07T10:12:28.323Z,2.42
2018-10-07T10:13:38.790Z,2.95
2018-10-07T10:14:49.131Z,3.75
2018-10-07T10:15:59.143Z,3.85
2018-10-07T10:17:13.179Z,3.62
2018-10-07T10:18:36.403Z,3.60
2018-10-07T10:20:04.323Z,2.83
2018-10-07T10:21:25.226Z,3.50
2018-10-07T10:24:48.012Z,3.35
2018-10-07T10:26:07.070Z,3.92
2018-10-07T10:27:23.434Z,3.52
2018-10-07T10:28:36.935Z,3.10
2018-10-07T10:29:49.710Z,4.17
2018-10-07T10:31:22.009Z,3.30
2018-10-07T10:32:35.022Z,2.47
2018-10-07T10:34:05.400Z,3.83
2018-10-07T10:37:43.313Z,2.60
2018-10-07T10:39:05.787Z,3.58
2018-10-07T10:40:23.828Z,3.15
2018-10-07T10:41:37.964Z,2.55
2018-10-07T10:42:52.012Z,3.15
2018-10-07T10:44:07.215Z,3.00
2018-10-07T10:45:27.836Z,2.90
2018-10-07T10:46:52.386Z,2.98
2018-10-07T10:48:10.871Z,3.30
2018-10-07T10:49:29.665Z,3.62
2018-10-07T10:51:03.785Z,3.40
2018-10-07T10:52:24.944Z,2.98
2018-10-07T10:53:42.185Z,3.50
2018-10-07T10:54:59.092Z,3.40
2018-10-07T10:56:35.528Z,3.15
2018-10-07T10:57:49.198Z,4.30
2018-10-07T10:59:08.006Z,3.40
2018-10-07T11:00:28.270Z,3.50
2018-10-07T11:01:56.628Z,2.98
2018-10-07T11:03:28.695Z,2.95
2018-10-07T11:04:48.160Z,3.17
2018-10-07T11:06:08.135Z,3.17
2018-10-07T11:07:28.949Z,2.70
2018-10-07T11:08:49.606Z,2.90
2018-10-07T11:10:23.170Z,2.95
2018-10-07T11:11:40.389Z,3.10
2018-10-07T11:13:00.195Z,3.30
2018-10-07T11:14:29.174Z,3.10
2018-10-07T11:15:43.835Z,3.00
2018-10-07T11:17:15.043Z,3.55
2018-10-07T11:19:03.694Z,2.95
2018-10-07T11:20:22.050Z,3.90
2018-10-07T11:21:42.613Z,3.60
2018-10-07T11:23:04.371Z,3.75
2018-10-07T11:24:20.384Z,3.55
2018-10-07T11:25:44.976Z,3.30
2018-10-07T11:27:09.384Z,3.00
2018-10-07T11:28:27.727Z,3.77
2018-10-07T11:29:42.008Z,3.15
2018-10-07T11:31:06.376Z,3.35
2018-10-07T11:32:26.442Z,3.25
2018-10-07T11:33:45.973Z,3.65
2018-10-07T11:35:09.740Z,3.05
2018-10-07T11:36:30.844Z,3.58
2018-10-07T11:37:49.604Z,3.22
2018-10-07T11:39:11.359Z,3.00
2018-10-07T11:40:32.410Z,8.48
2018-10-07T11:42:07.313Z,4.35
2018-10-07T11:43:55.815Z,3.40
2018-10-07T11:45:18.320Z,3.00
2018-10-07T11:46:40.393Z,3.75
2018-10-07T11:48:01.059Z,3.98
2018-10-07T11:49:14.448Z,3.08
2018-10-07T11:50:33.661Z,3.50
2018-10-07T11:52:28.245Z,3.45
2018-10-07T11:53:45.114Z,2.92
2018-10-07T11:54:54.781Z,3.10
2018-10-07T11:56:05.023Z,2.85
2018-10-07T11:57:15.117Z,2.75
2018-10-07T11:58:24.648Z,2.95
2018-10-07T11:59:34.224Z,3.87
2018-10-07T12:00:43.885Z,2.85
2018-10-07T12:01:54.053Z,3.80
2018-10-07T12:03:03.996Z,3.40
2018-10-07T12:04:14.082Z,3.02
2018-10-07T12:05:24.030Z,3.15
2018-10-07T12:06:39.767Z,4.03
2018-10-07T12:07:49.892Z,3.20
2018-10-07T12:08:59.952Z,2.90
2018-10-07T12:10:10.029Z,3.17
2018-10-07T12:11:19.965Z,2.83
2018-10-07T12:12:35.679Z,3.05
2018-10-07T12:13:45.757Z,2.45
2018-10-07T12:14:55.598Z,3.40
2018-10-07T12:16:05.958Z,3.00
2018-10-07T12:17:15.795Z,3.00
2018-10-07T12:18:25.404Z,3.17
2018-10-07T12:19:39.483Z,3.08
2018-10-07T12:20:49.542Z,3.22
2018-10-07T12:21:59.349Z,3.20
2018-10-07T12:23:09.175Z,3.15
2018-10-07T12:24:19.490Z,2.58
2018-10-07T12:25:32.376Z,3.22
2018-10-07T12:26:42.377Z,2.58
2018-10-07T12:27:52.678Z,2.70
2018-10-07T12:29:02.427Z,2.47
2018-10-07T12:30:12.802Z,3.12
2018-10-07T12:31:22.786Z,2.58
2018-10-07T12:32:32.302Z,2.98
2018-10-07T12:33:42.162Z,2.95
2018-10-07T12:34:52.510Z,2.67
2018-10-07T12:36:02.395Z,2.67
2018-10-07T12:37:12.398Z,2.95
2018-10-07T12:38:22.402Z,3.42
2018-10-07T12:39:32.418Z,3.17
2018-10-07T12:40:42.545Z,2.70
2018-10-07T12:41:52.792Z,3.00
2018-10-07T12:43:02.597Z,2.72
2018-10-07T12:44:12.753Z,3.27
2018-10-07T12:45:22.881Z,2.65
2018-10-07T12:46:32.822Z,3.00
2018-10-07T12:47:42.771Z,2.30
2018-10-07T12:48:53.057Z,2.47
2018-10-07T12:50:03.052Z,2.70
2018-10-07T12:51:13.005Z,3.00
2018-10-07T12:52:23.252Z,2.25
2018-10-07T12:53:33.188Z,2.37
2018-10-07T12:54:43.512Z,2.50
2018-10-07T12:55:53.669Z,2.40
2018-10-07T12:57:03.905Z,3.35
2018-10-07T12:58:13.955Z,3.72
2018-10-07T12:59:23.674Z,3.15
2018-10-07T13:00:33.802Z,4.03
2018-10-07T13:01:44.100Z,3.20
2018-10-07T13:02:54.085Z,3.30
2018-10-07T13:04:04.109Z,2.80
2018-10-07T13:05:14.134Z,2.67
2018-10-07T13:06:23.974Z,2.77
2018-10-07T13:07:33.930Z,2.55
2018-10-07T13:08:44.149Z,2.80
2018-10-07T13:09:54.198Z,2.90
2018-10-07T13:11:04.186Z,3.05
2018-10-07T13:12:14.030Z,2.62
2018-10-07T13:13:23.827Z,3.10
2018-10-07T13:14:33.992Z,3.52
2018-10-07T13:15:43.759Z,3.30
2018-10-07T13:16:53.684Z,3.27
2018-10-07T13:18:03.981Z,3.52
2018-10-07T13:19:14.024Z,3.00
2018-10-07T13:20:24.227Z,4.05
2018-10-07T13:21:34.792Z,2.75
2018-10-07T13:22:44.736Z,3.60
2018-10-07T13:23:55.163Z,2.85
2018-10-07T13:25:07.016Z,2.80
2018-10-07T13:26:17.002Z,2.70
2018-10-07T13:27:27.139Z,3.40
2018-10-07T13:28:37.426Z,3.33
2018-10-07T13:29:47.600Z,3.27
2018-10-07T13:31:00.967Z,3.47
2018-10-07T13:32:11.162Z,3.08
2018-10-07T13:33:21.028Z,2.42
2018-10-07T13:34:30.974Z,2.92
2018-10-07T13:35:40.987Z,2.92
2018-10-07T13:36:51.867Z,2.95
2018-10-07T13:38:01.855Z,2.58
2018-10-07T13:39:12.599Z,2.75
2018-10-07T13:40:22.579Z,3.72
2018-10-07T13:41:32.545Z,3.22
2018-10-07T13:42:42.715Z,3.20
2018-10-07T13:43:52.722Z,3.27
2018-10-07T13:45:02.642Z,3.15
2018-10-07T13:46:16.066Z,3.08
2018-10-07T13:47:25.967Z,2.55
2018-10-07T13:48:35.892Z,3.02
2018-10-07T13:49:46.065Z,2.98
2018-10-07T13:50:56.242Z,3.10
2018-10-07T13:52:06.198Z,3.10
2018-10-07T13:53:16.524Z,2.75
2018-10-07T13:54:26.460Z,2.95
2018-10-07T13:55:36.284Z,2.75
2018-10-07T13:56:46.171Z,2.62
2018-10-07T13:57:55.936Z,3.40
2018-10-07T13:59:05.479Z,3.25
2018-10-07T14:00:15.529Z,2.58
2018-10-07T14:01:25.600Z,2.40
2018-10-07T14:02:35.430Z,2.10
2018-10-07T14:03:45.539Z,3.25
2018-10-07T14:04:55.582Z,2.35
2018-10-07T14:06:05.897Z,2.55
2018-10-07T14:07:15.792Z,2.80
2018-10-07T14:08:25.652Z,2.60
2018-10-07T14:09:35.747Z,2.80
2018-10-07T14:10:45.642Z,2.55
2018-10-07T14:13:14.697Z,3.08
2018-10-07T14:14:24.548Z,2.90
2018-10-07T14:15:34.586Z,2.77
2018-10-07T14:16:44.359Z,2.98
2018-10-07T14:17:54.263Z,3.05
2018-10-07T14:19:04.156Z,2.72
2018-10-07T14:20:14.070Z,3.10
2018-10-07T14:21:23.987Z,2.65
2018-10-07T14:22:34.347Z,2.90
2018-10-07T14:23:44.727Z,2.95
2018-10-07T14:24:54.925Z,2.30
2018-10-07T14:26:05.273Z,2.37
2018-10-07T14:27:15.146Z,2.22
2018-10-07T14:28:24.924Z,2.83
2018-10-07T14:29:35.222Z,2.25
2018-10-07T14:30:45.695Z,2.72
2018-10-07T14:31:55.575Z,2.65
2018-10-07T14:33:10.839Z,2.52
2018-10-07T14:34:20.669Z,2.62
2018-10-07T14:35:30.499Z,2.55
2018-10-07T14:36:40.718Z,3.20
2018-10-07T14:37:50.704Z,2.95
2018-10-07T14:39:00.391Z,2.42
2018-10-07T14:40:10.276Z,2.37
2018-10-07T14:41:20.240Z,2.65
2018-10-07T14:42:29.980Z,2.77
2018-10-07T14:43:39.957Z,2.10
2018-10-07T14:44:50.111Z,2.72
2018-10-07T14:46:00.298Z,3.25
2018-10-07T14:47:10.652Z,3.00
2018-10-07T14:48:20.303Z,3.10
2018-10-07T14:49:30.195Z,2.50
2018-10-07T14:50:40.024Z,2.62
2018-10-07T14:51:50.268Z,2.80
2018-10-07T14:53:00.367Z,3.15
2018-10-07T14:54:10.351Z,2.75
2018-10-07T14:55:20.238Z,2.67
2018-10-07T14:56:30.350Z,2.75
2018-10-07T14:57:40.660Z,2.35
2018-10-07T14:58:50.928Z,2.55
2018-10-07T15:00:00.792Z,2.50
2018-10-07T15:01:10.932Z,2.70
2018-10-07T15:02:20.915Z,2.80
2018-10-07T15:03:30.671Z,2.05
2018-10-07T15:04:40.504Z,2.80
2018-10-07T15:05:59.676Z,3.27
2018-10-07T15:07:09.470Z,3.22
2018-10-07T15:08:19.404Z,3.00
2018-10-07T15:09:29.635Z,2.65
2018-10-07T15:10:39.591Z,2.60
2018-10-07T15:11:49.701Z,2.12
2018-10-07T15:12:59.662Z,2.42
2018-10-07T15:14:10.136Z,2.67
2018-10-07T15:15:23.685Z,2.12
2018-10-07T15:16:34.764Z,2.50
2018-10-07T15:17:45.194Z,2.20
2018-10-07T15:18:54.863Z,2.30
2018-10-07T15:20:04.989Z,3.02
2018-10-07T15:21:14.973Z,3.15
2018-10-07T15:22:25.108Z,2.77
2018-10-07T15:23:35.287Z,2.25
2018-10-07T15:24:45.328Z,2.70
2018-10-07T15:25:55.280Z,2.50
2018-10-07T15:27:05.408Z,2.70
2018-10-07T15:28:19.241Z,2.15
2018-10-07T15:29:29.188Z,2.80
2018-10-07T15:30:39.105Z,2.70
2018-10-07T15:31:49.097Z,2.55
2018-10-07T15:32:59.015Z,2.90
2018-10-07T15:34:09.100Z,2.75
2018-10-07T15:35:19.059Z,2.75
2018-10-07T15:36:28.776Z,3.10
2018-10-07T15:37:38.626Z,3.20
2018-10-07T15:38:48.718Z,2.85
2018-10-07T15:39:58.877Z,2.80
2018-10-07T15:41:09.687Z,2.50
2018-10-07T15:42:19.962Z,2.30
2018-10-07T15:43:31.018Z,2.47
2018-10-07T15:44:45.533Z,2.30
2018-10-07T15:45:55.579Z,2.40
2018-10-07T15:47:06.905Z,2.60
2018-10-07T15:48:17.149Z,2.98
2018-10-07T15:49:29.345Z,3.25
2018-10-07T15:50:39.688Z,2.62
2018-10-07T15:51:50.298Z,2.72
2018-10-07T15:53:01.091Z,2.85
2018-10-07T15:54:11.129Z,2.50
2018-10-07T15:55:21.049Z,2.58
2018-10-07T15:56:31.228Z,2.20